sensor_id;sensor_type;location;lat;lon;timestamp;pressure;altitude;pressure_sealevel;temperature;humidity
61478;BME280;47345;52.334;10.392;2024-01-15T00:02:05;98900.02;;;1.28;92.57
61478;BME280;47345;52.334;10.392;2024-01-15T00:04:39;98895.24;;;1.29;92.76
61478;BME280;47345;52.334;10.392;2024-01-15T00:07:10;98894.98;;;1.30;92.68
61478;BME280;47345;52.334;10.392;2024-01-15T00:09:40;98892.10;;;1.30;92.88
61478;BME280;47345;52.334;10.392;2024-01-15T00:12:11;98892.52;;;1.31;92.59
61478;BME280;47345;52.334;10.392;2024-01-15T00:14:41;98890.65;;;1.30;92.76
61478;BME280;47345;52.334;10.392;2024-01-15T00:17:12;98887.95;;;1.29;93.06
61478;BME280;47345;52.334;10.392;2024-01-15T00:19:42;98888.64;;;1.29;93.01
61478;BME280;47345;52.334;10.392;2024-01-15T00:22:13;98890.42;;;1.28;93.27
61478;BME280;47345;52.334;10.392;2024-01-15T00:24:44;98881.59;;;1.28;93.46
61478;BME280;47345;52.334;10.392;2024-01-15T00:27:14;98880.92;;;1.27;93.32
61478;BME280;47345;52.334;10.392;2024-01-15T00:29:45;98877.69;;;1.27;93.61
61478;BME280;47345;52.334;10.392;2024-01-15T00:32:15;98882.91;;;1.27;93.68
61478;BME280;47345;52.334;10.392;2024-01-15T00:34:46;98884.86;;;1.27;93.59
61478;BME280;47345;52.334;10.392;2024-01-15T00:37:16;98881.34;;;1.28;93.77
61478;BME280;47345;52.334;10.392;2024-01-15T00:39:47;98875.71;;;1.29;93.58
61478;BME280;47345;52.334;10.392;2024-01-15T00:42:18;98879.41;;;1.28;93.83
61478;BME280;47345;52.334;10.392;2024-01-15T00:44:48;98876.44;;;1.26;93.63
61478;BME280;47345;52.334;10.392;2024-01-15T00:47:20;98874.67;;;1.24;93.36
61478;BME280;47345;52.334;10.392;2024-01-15T00:49:51;98866.76;;;1.24;93.67
61478;BME280;47345;52.334;10.392;2024-01-15T00:52:21;98861.23;;;1.26;93.64
61478;BME280;47345;52.334;10.392;2024-01-15T00:54:52;98855.96;;;1.26;93.72
61478;BME280;47345;52.334;10.392;2024-01-15T00:57:22;98850.10;;;1.28;93.39
61478;BME280;47345;52.334;10.392;2024-01-15T00:59:53;98847.67;;;1.30;93.60
61478;BME280;47345;52.334;10.392;2024-01-15T01:02:24;98840.35;;;1.32;93.32
61478;BME280;47345;52.334;10.392;2024-01-15T01:04:54;98835.05;;;1.32;92.84
61478;BME280;47345;52.334;10.392;2024-01-15T01:07:24;98836.15;;;1.31;92.08
61478;BME280;47345;52.334;10.392;2024-01-15T01:09:55;98836.29;;;1.27;91.86
61478;BME280;47345;52.334;10.392;2024-01-15T01:12:26;98839.36;;;1.19;91.60
61478;BME280;47345;52.334;10.392;2024-01-15T01:14:56;98847.10;;;1.13;90.89
61478;BME280;47345;52.334;10.392;2024-01-15T01:17:29;98837.93;;;1.06;90.94
61478;BME280;47345;52.334;10.392;2024-01-15T01:20:00;98837.11;;;1.03;91.12
61478;BME280;47345;52.334;10.392;2024-01-15T01:22:34;98830.85;;;0.98;90.78
61478;BME280;47345;52.334;10.392;2024-01-15T01:25:05;98832.35;;;0.95;91.07
61478;BME280;47345;52.334;10.392;2024-01-15T01:27:36;98832.41;;;0.93;91.17
61478;BME280;47345;52.334;10.392;2024-01-15T01:30:08;98836.56;;;0.90;90.81
61478;BME280;47345;52.334;10.392;2024-01-15T01:32:39;98835.44;;;0.89;91.15
61478;BME280;47345;52.334;10.392;2024-01-15T01:35:10;98836.60;;;0.90;91.19
61478;BME280;47345;52.334;10.392;2024-01-15T01:37:40;98834.29;;;0.91;91.02
61478;BME280;47345;52.334;10.392;2024-01-15T01:40:12;98836.11;;;0.94;90.98
61478;BME280;47345;52.334;10.392;2024-01-15T01:42:42;98831.83;;;0.96;91.02
61478;BME280;47345;52.334;10.392;2024-01-15T01:45:13;98839.90;;;1.00;90.97
61478;BME280;47345;52.334;10.392;2024-01-15T01:47:44;98845.45;;;1.05;90.85
61478;BME280;47345;52.334;10.392;2024-01-15T01:50:15;98851.65;;;1.09;90.71
61478;BME280;47345;52.334;10.392;2024-01-15T01:52:46;98851.85;;;1.11;90.38
61478;BME280;47345;52.334;10.392;2024-01-15T01:55:17;98844.02;;;1.12;90.15
61478;BME280;47345;52.334;10.392;2024-01-15T01:57:48;98840.02;;;1.17;89.88
61478;BME280;47345;52.334;10.392;2024-01-15T02:00:19;98840.31;;;1.19;89.68
61478;BME280;47345;52.334;10.392;2024-01-15T02:02:50;98837.26;;;1.20;89.35
61478;BME280;47345;52.334;10.392;2024-01-15T02:05:22;98833.55;;;1.23;89.09
61478;BME280;47345;52.334;10.392;2024-01-15T02:07:52;98828.63;;;1.23;89.20
61478;BME280;47345;52.334;10.392;2024-01-15T02:10:23;98824.20;;;1.23;88.59
61478;BME280;47345;52.334;10.392;2024-01-15T02:12:53;98821.53;;;1.23;88.76
61478;BME280;47345;52.334;10.392;2024-01-15T02:15:24;98817.95;;;1.24;88.72
61478;BME280;47345;52.334;10.392;2024-01-15T02:17:59;98808.54;;;1.25;88.47
61478;BME280;47345;52.334;10.392;2024-01-15T02:20:31;98806.89;;;1.26;88.49
61478;BME280;47345;52.334;10.392;2024-01-15T02:23:09;98801.48;;;1.28;88.28
61478;BME280;47345;52.334;10.392;2024-01-15T02:25:41;98799.40;;;1.32;87.90
61478;BME280;47345;52.334;10.392;2024-01-15T02:28:16;98800.41;;;1.34;87.92
61478;BME280;47345;52.334;10.392;2024-01-15T02:30:47;98790.85;;;1.35;87.59
61478;BME280;47345;52.334;10.392;2024-01-15T02:33:18;98785.60;;;1.37;87.58
61478;BME280;47345;52.334;10.392;2024-01-15T02:35:49;98791.58;;;1.40;87.00
61478;BME280;47345;52.334;10.392;2024-01-15T02:38:20;98788.47;;;1.43;86.66
61478;BME280;47345;52.334;10.392;2024-01-15T02:40:51;98788.61;;;1.46;86.45
61478;BME280;47345;52.334;10.392;2024-01-15T02:43:21;98785.40;;;1.49;86.16
61478;BME280;47345;52.334;10.392;2024-01-15T02:45:52;98787.28;;;1.51;86.33
61478;BME280;47345;52.334;10.392;2024-01-15T02:48:22;98780.04;;;1.53;86.22
61478;BME280;47345;52.334;10.392;2024-01-15T02:50:53;98777.85;;;1.54;85.79
61478;BME280;47345;52.334;10.392;2024-01-15T02:53:24;98783.17;;;1.57;85.64
61478;BME280;47345;52.334;10.392;2024-01-15T02:55:54;98766.98;;;1.58;85.80
61478;BME280;47345;52.334;10.392;2024-01-15T02:58:25;98771.62;;;1.59;85.82
61478;BME280;47345;52.334;10.392;2024-01-15T03:00:55;98768.71;;;1.60;85.68
61478;BME280;47345;52.334;10.392;2024-01-15T03:03:26;98769.63;;;1.61;85.54
61478;BME280;47345;52.334;10.392;2024-01-15T03:05:56;98758.26;;;1.61;85.63
61478;BME280;47345;52.334;10.392;2024-01-15T03:08:27;98755.08;;;1.62;85.39
61478;BME280;47345;52.334;10.392;2024-01-15T03:10:58;98759.49;;;1.65;85.62
61478;BME280;47345;52.334;10.392;2024-01-15T03:13:28;98754.92;;;1.65;85.53
61478;BME280;47345;52.334;10.392;2024-01-15T03:15:59;98755.69;;;1.66;85.31
61478;BME280;47345;52.334;10.392;2024-01-15T03:18:30;98758.43;;;1.67;85.34
61478;BME280;47345;52.334;10.392;2024-01-15T03:21:00;98759.77;;;1.69;85.19
61478;BME280;47345;52.334;10.392;2024-01-15T03:23:31;98757.82;;;1.70;85.04
61478;BME280;47345;52.334;10.392;2024-01-15T03:26:01;98758.08;;;1.71;84.84
61478;BME280;47345;52.334;10.392;2024-01-15T03:28:32;98762.60;;;1.71;84.77
61478;BME280;47345;52.334;10.392;2024-01-15T03:31:02;98762.05;;;1.71;85.12
61478;BME280;47345;52.334;10.392;2024-01-15T03:33:33;98757.04;;;1.70;84.88
61478;BME280;47345;52.334;10.392;2024-01-15T03:36:05;98755.83;;;1.70;84.83
61478;BME280;47345;52.334;10.392;2024-01-15T03:38:35;98754.77;;;1.71;84.57
61478;BME280;47345;52.334;10.392;2024-01-15T03:41:08;98753.23;;;1.70;84.83
61478;BME280;47345;52.334;10.392;2024-01-15T03:43:39;98752.48;;;1.70;84.66
61478;BME280;47345;52.334;10.392;2024-01-15T03:46:09;98754.67;;;1.70;84.30
61478;BME280;47345;52.334;10.392;2024-01-15T03:48:40;98754.31;;;1.73;84.20
61478;BME280;47345;52.334;10.392;2024-01-15T03:51:10;98755.30;;;1.72;84.53
61478;BME280;47345;52.334;10.392;2024-01-15T03:53:41;98753.23;;;1.71;84.46
61478;BME280;47345;52.334;10.392;2024-01-15T03:56:12;98768.04;;;1.71;84.60
61478;BME280;47345;52.334;10.392;2024-01-15T03:58:42;98779.27;;;1.71;85.26
61478;BME280;47345;52.334;10.392;2024-01-15T04:01:13;98773.53;;;1.68;85.68
61478;BME280;47345;52.334;10.392;2024-01-15T04:03:44;98768.55;;;1.62;86.08
61478;BME280;47345;52.334;10.392;2024-01-15T04:06:14;98769.59;;;1.60;85.98
61478;BME280;47345;52.334;10.392;2024-01-15T04:08:45;98771.75;;;1.59;86.33
61478;BME280;47345;52.334;10.392;2024-01-15T04:11:15;98776.45;;;1.57;86.46
61478;BME280;47345;52.334;10.392;2024-01-15T04:13:46;98778.61;;;1.56;86.73
61478;BME280;47345;52.334;10.392;2024-01-15T04:16:16;98774.66;;;1.54;87.28
61478;BME280;47345;52.334;10.392;2024-01-15T04:18:46;98765.39;;;1.51;87.36
61478;BME280;47345;52.334;10.392;2024-01-15T04:21:18;98761.34;;;1.47;88.06
61478;BME280;47345;52.334;10.392;2024-01-15T04:23:48;98754.69;;;1.44;88.03
61478;BME280;47345;52.334;10.392;2024-01-15T04:26:19;98755.05;;;1.41;87.84
61478;BME280;47345;52.334;10.392;2024-01-15T04:28:49;98754.83;;;1.40;87.88
61478;BME280;47345;52.334;10.392;2024-01-15T04:31:26;98763.71;;;1.41;87.55
61478;BME280;47345;52.334;10.392;2024-01-15T04:33:57;98764.34;;;1.43;87.37
61478;BME280;47345;52.334;10.392;2024-01-15T04:36:27;98764.83;;;1.48;87.28
61478;BME280;47345;52.334;10.392;2024-01-15T04:38:58;98762.81;;;1.51;86.99
61478;BME280;47345;52.334;10.392;2024-01-15T04:41:28;98763.67;;;1.56;86.44
61478;BME280;47345;52.334;10.392;2024-01-15T04:43:59;98769.55;;;1.59;86.41
61478;BME280;47345;52.334;10.392;2024-01-15T04:46:30;98774.40;;;1.61;86.17
61478;BME280;47345;52.334;10.392;2024-01-15T04:49:00;98769.60;;;1.64;86.15
61478;BME280;47345;52.334;10.392;2024-01-15T04:51:32;98774.91;;;1.65;86.45
61478;BME280;47345;52.334;10.392;2024-01-15T04:54:02;98773.77;;;1.66;86.42
61478;BME280;47345;52.334;10.392;2024-01-15T04:56:33;98777.62;;;1.66;86.70
61478;BME280;47345;52.334;10.392;2024-01-15T04:59:03;98770.61;;;1.66;86.95
61478;BME280;47345;52.334;10.392;2024-01-15T05:01:34;98767.56;;;1.64;87.06
61478;BME280;47345;52.334;10.392;2024-01-15T05:04:04;98771.54;;;1.63;86.95
61478;BME280;47345;52.334;10.392;2024-01-15T05:06:35;98769.05;;;1.61;87.26
61478;BME280;47345;52.334;10.392;2024-01-15T05:09:05;98770.16;;;1.61;87.14
61478;BME280;47345;52.334;10.392;2024-01-15T05:11:36;98767.14;;;1.61;87.46
61478;BME280;47345;52.334;10.392;2024-01-15T05:14:06;98774.34;;;1.59;87.36
61478;BME280;47345;52.334;10.392;2024-01-15T05:16:39;98773.60;;;1.57;87.95
61478;BME280;47345;52.334;10.392;2024-01-15T05:19:10;98771.41;;;1.53;88.28
61478;BME280;47345;52.334;10.392;2024-01-15T05:21:40;98770.83;;;1.47;89.43
61478;BME280;47345;52.334;10.392;2024-01-15T05:24:11;98760.83;;;1.39;89.63
61478;BME280;47345;52.334;10.392;2024-01-15T05:26:41;98759.19;;;1.36;89.92
61478;BME280;47345;52.334;10.392;2024-01-15T05:29:11;98756.02;;;1.32;90.23
61478;BME280;47345;52.334;10.392;2024-01-15T05:31:42;98761.62;;;1.29;90.44
61478;BME280;47345;52.334;10.392;2024-01-15T05:34:13;98757.61;;;1.24;90.38
61478;BME280;47345;52.334;10.392;2024-01-15T05:36:44;98761.81;;;1.27;90.48
61478;BME280;47345;52.334;10.392;2024-01-15T05:39:17;98763.36;;;1.24;90.31
61478;BME280;47345;52.334;10.392;2024-01-15T05:41:50;98761.21;;;1.25;89.98
61478;BME280;47345;52.334;10.392;2024-01-15T05:44:20;98759.07;;;1.27;90.34
61478;BME280;47345;52.334;10.392;2024-01-15T05:46:51;98761.13;;;1.29;89.98
61478;BME280;47345;52.334;10.392;2024-01-15T05:49:21;98765.34;;;1.32;89.71
61478;BME280;47345;52.334;10.392;2024-01-15T05:51:52;98760.46;;;1.36;89.82
61478;BME280;47345;52.334;10.392;2024-01-15T05:54:23;98759.36;;;1.37;89.51
61478;BME280;47345;52.334;10.392;2024-01-15T05:56:53;98754.58;;;1.39;89.37
61478;BME280;47345;52.334;10.392;2024-01-15T05:59:24;98755.38;;;1.42;89.30
61478;BME280;47345;52.334;10.392;2024-01-15T06:01:55;98745.69;;;1.43;89.22
61478;BME280;47345;52.334;10.392;2024-01-15T06:04:25;98749.84;;;1.44;89.30
61478;BME280;47345;52.334;10.392;2024-01-15T06:06:56;98753.23;;;1.44;89.29
61478;BME280;47345;52.334;10.392;2024-01-15T06:09:27;98756.05;;;1.43;89.16
61478;BME280;47345;52.334;10.392;2024-01-15T06:11:57;98763.11;;;1.46;89.42
61478;BME280;47345;52.334;10.392;2024-01-15T06:14:28;98765.48;;;1.47;89.08
61478;BME280;47345;52.334;10.392;2024-01-15T06:16:58;98758.44;;;1.47;89.09
61478;BME280;47345;52.334;10.392;2024-01-15T06:19:29;98757.06;;;1.47;88.83
61478;BME280;47345;52.334;10.392;2024-01-15T06:21:59;98756.35;;;1.45;88.91
61478;BME280;47345;52.334;10.392;2024-01-15T06:24:30;98753.65;;;1.44;89.07
61478;BME280;47345;52.334;10.392;2024-01-15T06:27:00;98758.92;;;1.43;88.90
61478;BME280;47345;52.334;10.392;2024-01-15T06:29:31;98762.41;;;1.41;89.76
61478;BME280;47345;52.334;10.392;2024-01-15T06:32:02;98757.65;;;1.37;89.75
61478;BME280;47345;52.334;10.392;2024-01-15T06:34:32;98763.83;;;1.31;90.34
61478;BME280;47345;52.334;10.392;2024-01-15T06:37:03;98765.27;;;1.29;90.49
61478;BME280;47345;52.334;10.392;2024-01-15T06:39:33;98761.52;;;1.27;90.59
61478;BME280;47345;52.334;10.392;2024-01-15T06:42:05;98765.17;;;1.28;90.73
61478;BME280;47345;52.334;10.392;2024-01-15T06:44:35;98763.06;;;1.28;90.78
61478;BME280;47345;52.334;10.392;2024-01-15T06:47:06;98769.69;;;1.28;91.04
61478;BME280;47345;52.334;10.392;2024-01-15T06:49:37;98769.45;;;1.28;91.10
61478;BME280;47345;52.334;10.392;2024-01-15T06:52:08;98767.30;;;1.30;90.97
61478;BME280;47345;52.334;10.392;2024-01-15T06:54:38;98774.56;;;1.30;90.74
61478;BME280;47345;52.334;10.392;2024-01-15T06:57:09;98771.95;;;1.31;91.17
61478;BME280;47345;52.334;10.392;2024-01-15T06:59:39;98766.44;;;1.31;91.29
61478;BME280;47345;52.334;10.392;2024-01-15T07:02:10;98762.50;;;1.29;91.19
61478;BME280;47345;52.334;10.392;2024-01-15T07:04:41;98767.98;;;1.30;91.12
61478;BME280;47345;52.334;10.392;2024-01-15T07:07:12;98774.10;;;1.30;91.48
61478;BME280;47345;52.334;10.392;2024-01-15T07:09:42;98768.67;;;1.30;91.46
61478;BME280;47345;52.334;10.392;2024-01-15T07:12:13;98768.44;;;1.31;91.38
61478;BME280;47345;52.334;10.392;2024-01-15T07:14:43;98769.33;;;1.29;91.25
61478;BME280;47345;52.334;10.392;2024-01-15T07:17:14;98776.59;;;1.30;91.30
61478;BME280;47345;52.334;10.392;2024-01-15T07:19:44;98780.90;;;1.30;91.17
61478;BME280;47345;52.334;10.392;2024-01-15T07:22:16;98784.61;;;1.32;91.36
61478;BME280;47345;52.334;10.392;2024-01-15T07:24:46;98783.75;;;1.33;91.28
61478;BME280;47345;52.334;10.392;2024-01-15T07:27:17;98780.27;;;1.34;91.49
61478;BME280;47345;52.334;10.392;2024-01-15T07:29:47;98787.61;;;1.34;91.28
61478;BME280;47345;52.334;10.392;2024-01-15T07:32:18;98785.33;;;1.33;91.60
61478;BME280;47345;52.334;10.392;2024-01-15T07:34:49;98786.50;;;1.30;91.42
61478;BME280;47345;52.334;10.392;2024-01-15T07:37:20;98783.16;;;1.28;91.74
61478;BME280;47345;52.334;10.392;2024-01-15T07:39:52;98779.30;;;1.27;91.61
61478;BME280;47345;52.334;10.392;2024-01-15T07:42:23;98784.58;;;1.28;91.79
61478;BME280;47345;52.334;10.392;2024-01-15T07:44:54;98785.27;;;1.33;91.40
61478;BME280;47345;52.334;10.392;2024-01-15T07:47:24;98784.27;;;1.36;91.38
61478;BME280;47345;52.334;10.392;2024-01-15T07:49:55;98789.52;;;1.40;91.27
61478;BME280;47345;52.334;10.392;2024-01-15T07:52:30;98795.64;;;1.44;90.61
61478;BME280;47345;52.334;10.392;2024-01-15T07:55:00;98793.59;;;1.46;90.87
61478;BME280;47345;52.334;10.392;2024-01-15T07:57:33;98791.14;;;1.47;90.53
61478;BME280;47345;52.334;10.392;2024-01-15T08:00:06;98792.77;;;1.47;90.78
61478;BME280;47345;52.334;10.392;2024-01-15T08:02:38;98797.94;;;1.47;90.83
61478;BME280;47345;52.334;10.392;2024-01-15T08:05:09;98797.46;;;1.50;90.77
61478;BME280;47345;52.334;10.392;2024-01-15T08:07:40;98795.58;;;1.53;90.44
61478;BME280;47345;52.334;10.392;2024-01-15T08:10:11;98800.55;;;1.59;90.38
61478;BME280;47345;52.334;10.392;2024-01-15T08:12:43;98801.47;;;1.67;90.46
61478;BME280;47345;52.334;10.392;2024-01-15T08:15:13;98804.11;;;1.71;90.43
61478;BME280;47345;52.334;10.392;2024-01-15T08:17:44;98806.72;;;1.76;90.64
61478;BME280;47345;52.334;10.392;2024-01-15T08:20:15;98808.34;;;1.80;90.38
61478;BME280;47345;52.334;10.392;2024-01-15T08:22:46;98803.58;;;1.84;90.40
61478;BME280;47345;52.334;10.392;2024-01-15T08:25:17;98808.20;;;1.88;90.59
61478;BME280;47345;52.334;10.392;2024-01-15T08:27:48;98799.95;;;1.88;90.58
61478;BME280;47345;52.334;10.392;2024-01-15T08:30:19;98796.27;;;1.89;90.68
61478;BME280;47345;52.334;10.392;2024-01-15T08:32:50;98797.21;;;1.89;90.60
61478;BME280;47345;52.334;10.392;2024-01-15T08:35:20;98797.00;;;1.89;90.48
61478;BME280;47345;52.334;10.392;2024-01-15T08:37:52;98805.56;;;1.84;90.74
61478;BME280;47345;52.334;10.392;2024-01-15T08:40:23;98807.73;;;1.80;90.75
61478;BME280;47345;52.334;10.392;2024-01-15T08:42:53;98808.09;;;1.76;91.08
61478;BME280;47345;52.334;10.392;2024-01-15T08:45:24;98805.59;;;1.75;91.30
61478;BME280;47345;52.334;10.392;2024-01-15T08:47:55;98811.73;;;1.72;91.47
61478;BME280;47345;52.334;10.392;2024-01-15T08:50:26;98811.63;;;1.70;91.54
61478;BME280;47345;52.334;10.392;2024-01-15T08:52:57;98809.44;;;1.67;91.75
61478;BME280;47345;52.334;10.392;2024-01-15T08:55:27;98805.87;;;1.61;91.65
61478;BME280;47345;52.334;10.392;2024-01-15T08:57:58;98813.73;;;1.58;91.72
61478;BME280;47345;52.334;10.392;2024-01-15T09:00:28;98812.70;;;1.52;91.70
61478;BME280;47345;52.334;10.392;2024-01-15T09:02:59;98815.05;;;1.50;92.21
61478;BME280;47345;52.334;10.392;2024-01-15T09:05:29;98815.70;;;1.49;91.99
61478;BME280;47345;52.334;10.392;2024-01-15T09:08:00;98816.36;;;1.54;92.21
61478;BME280;47345;52.334;10.392;2024-01-15T09:10:30;98816.11;;;1.63;92.17
61478;BME280;47345;52.334;10.392;2024-01-15T09:13:01;98822.05;;;1.75;91.84
61478;BME280;47345;52.334;10.392;2024-01-15T09:15:33;98820.36;;;1.95;91.43
61478;BME280;47345;52.334;10.392;2024-01-15T09:18:03;98819.02;;;2.17;91.08
61478;BME280;47345;52.334;10.392;2024-01-15T09:20:37;98828.60;;;2.31;90.08
61478;BME280;47345;52.334;10.392;2024-01-15T09:23:08;98831.09;;;2.30;89.66
61478;BME280;47345;52.334;10.392;2024-01-15T09:25:38;98834.59;;;2.18;89.21
61478;BME280;47345;52.334;10.392;2024-01-15T09:28:08;98837.30;;;2.04;89.57
61478;BME280;47345;52.334;10.392;2024-01-15T09:30:39;98840.91;;;1.90;89.92
61478;BME280;47345;52.334;10.392;2024-01-15T09:33:10;98838.81;;;1.81;90.02
61478;BME280;47345;52.334;10.392;2024-01-15T09:35:40;98843.80;;;1.77;90.08
61478;BME280;47345;52.334;10.392;2024-01-15T09:38:11;98840.14;;;1.76;90.40
61478;BME280;47345;52.334;10.392;2024-01-15T09:40:44;98844.69;;;1.79;90.36
61478;BME280;47345;52.334;10.392;2024-01-15T09:43:16;98845.88;;;1.82;89.90
61478;BME280;47345;52.334;10.392;2024-01-15T09:45:47;98844.17;;;1.83;90.01
61478;BME280;47345;52.334;10.392;2024-01-15T09:48:19;98845.14;;;1.83;89.57
61478;BME280;47345;52.334;10.392;2024-01-15T09:50:50;98843.66;;;1.87;89.71
61478;BME280;47345;52.334;10.392;2024-01-15T09:53:21;98845.83;;;1.94;89.43
61478;BME280;47345;52.334;10.392;2024-01-15T09:55:54;98847.66;;;2.02;89.39
61478;BME280;47345;52.334;10.392;2024-01-15T09:58:24;98842.52;;;2.09;89.10
61478;BME280;47345;52.334;10.392;2024-01-15T10:00:55;98834.55;;;2.16;89.08
61478;BME280;47345;52.334;10.392;2024-01-15T10:03:26;98840.10;;;2.26;88.67
61478;BME280;47345;52.334;10.392;2024-01-15T10:05:59;98839.30;;;2.30;87.96
61478;BME280;47345;52.334;10.392;2024-01-15T10:08:30;98840.97;;;2.31;87.50
61478;BME280;47345;52.334;10.392;2024-01-15T10:11:02;98843.20;;;2.31;87.35
61478;BME280;47345;52.334;10.392;2024-01-15T10:13:34;98844.77;;;2.34;86.92
61478;BME280;47345;52.334;10.392;2024-01-15T10:16:06;98842.55;;;2.33;86.27
61478;BME280;47345;52.334;10.392;2024-01-15T10:18:37;98841.97;;;2.32;86.22
61478;BME280;47345;52.334;10.392;2024-01-15T10:21:08;98846.09;;;2.35;85.79
61478;BME280;47345;52.334;10.392;2024-01-15T10:23:39;98847.54;;;2.41;85.71
61478;BME280;47345;52.334;10.392;2024-01-15T10:26:10;98842.61;;;2.48;85.43
61478;BME280;47345;52.334;10.392;2024-01-15T10:28:43;98845.89;;;2.56;85.09
61478;BME280;47345;52.334;10.392;2024-01-15T10:31:13;98847.06;;;2.57;85.03
61478;BME280;47345;52.334;10.392;2024-01-15T10:33:45;98848.56;;;2.56;85.28
61478;BME280;47345;52.334;10.392;2024-01-15T10:36:17;98843.73;;;2.57;84.91
61478;BME280;47345;52.334;10.392;2024-01-15T10:38:48;98842.70;;;2.59;84.56
61478;BME280;47345;52.334;10.392;2024-01-15T10:41:18;98843.35;;;2.63;84.75
61478;BME280;47345;52.334;10.392;2024-01-15T10:43:49;98839.50;;;2.72;84.31
61478;BME280;47345;52.334;10.392;2024-01-15T10:46:20;98837.85;;;2.78;83.28
61478;BME280;47345;52.334;10.392;2024-01-15T10:48:50;98844.65;;;2.74;83.18
61478;BME280;47345;52.334;10.392;2024-01-15T10:51:21;98845.02;;;2.72;83.50
61478;BME280;47345;52.334;10.392;2024-01-15T10:53:54;98847.93;;;2.71;82.82
61478;BME280;47345;52.334;10.392;2024-01-15T10:56:27;98844.77;;;2.69;83.08
61478;BME280;47345;52.334;10.392;2024-01-15T10:58:58;98840.52;;;2.65;82.95
61478;BME280;47345;52.334;10.392;2024-01-15T11:01:29;98838.77;;;2.64;83.33
61478;BME280;47345;52.334;10.392;2024-01-15T11:04:00;98844.35;;;2.62;83.78
61478;BME280;47345;52.334;10.392;2024-01-15T11:06:44;98847.23;;;2.61;83.60
61478;BME280;47345;52.334;10.392;2024-01-15T11:09:15;98851.67;;;2.56;83.56
61478;BME280;47345;52.334;10.392;2024-01-15T11:11:50;98853.11;;;2.53;83.79
61478;BME280;47345;52.334;10.392;2024-01-15T11:17:18;98845.84;;;2.56;84.72
61478;BME280;47345;52.334;10.392;2024-01-15T11:19:50;98845.61;;;2.58;85.16
61478;BME280;47345;52.334;10.392;2024-01-15T11:22:48;98841.85;;;2.66;84.89
61478;BME280;47345;52.334;10.392;2024-01-15T11:25:19;98836.94;;;2.78;84.66
61478;BME280;47345;52.334;10.392;2024-01-15T11:27:51;98837.23;;;2.89;84.64
61478;BME280;47345;52.334;10.392;2024-01-15T11:30:25;98835.64;;;3.03;84.61
61478;BME280;47345;52.334;10.392;2024-01-15T11:32:56;98835.98;;;3.11;84.44
61478;BME280;47345;52.334;10.392;2024-01-15T11:35:49;98833.66;;;3.14;84.29
61478;BME280;47345;52.334;10.392;2024-01-15T11:38:30;98832.96;;;3.15;83.69
61478;BME280;47345;52.334;10.392;2024-01-15T11:41:00;98832.67;;;3.13;83.27
61478;BME280;47345;52.334;10.392;2024-01-15T11:43:31;98836.27;;;3.09;83.16
61478;BME280;47345;52.334;10.392;2024-01-15T11:46:03;98836.09;;;3.01;82.56
61478;BME280;47345;52.334;10.392;2024-01-15T11:48:43;98833.40;;;2.87;82.86
61478;BME280;47345;52.334;10.392;2024-01-15T11:51:18;98829.73;;;2.71;82.94
61478;BME280;47345;52.334;10.392;2024-01-15T11:53:50;98831.45;;;2.58;83.45
61478;BME280;47345;52.334;10.392;2024-01-15T11:56:24;98838.15;;;2.52;84.04
61478;BME280;47345;52.334;10.392;2024-01-15T11:58:55;98833.47;;;2.55;84.57
61478;BME280;47345;52.334;10.392;2024-01-15T12:01:26;98827.10;;;2.65;84.19
61478;BME280;47345;52.334;10.392;2024-01-15T12:03:57;98823.70;;;2.76;83.33
61478;BME280;47345;52.334;10.392;2024-01-15T12:06:28;98824.70;;;2.85;82.73
61478;BME280;47345;52.334;10.392;2024-01-15T12:09:08;98824.05;;;2.88;82.46
61478;BME280;47345;52.334;10.392;2024-01-15T12:11:41;98826.13;;;2.90;82.16
61478;BME280;47345;52.334;10.392;2024-01-15T12:14:14;98825.58;;;2.86;81.60
61478;BME280;47345;52.334;10.392;2024-01-15T12:16:45;98825.27;;;2.79;80.88
61478;BME280;47345;52.334;10.392;2024-01-15T12:19:16;98823.83;;;2.72;81.18
61478;BME280;47345;52.334;10.392;2024-01-15T12:21:47;98824.54;;;2.68;81.19
61478;BME280;47345;52.334;10.392;2024-01-15T12:24:19;98822.16;;;2.63;80.15
61478;BME280;47345;52.334;10.392;2024-01-15T12:26:50;98815.92;;;2.55;79.03
61478;BME280;47345;52.334;10.392;2024-01-15T12:29:20;98826.08;;;2.54;80.00
61478;BME280;47345;52.334;10.392;2024-01-15T12:31:52;98830.60;;;2.55;79.89
61478;BME280;47345;52.334;10.392;2024-01-15T12:34:28;98824.00;;;2.51;80.02
61478;BME280;47345;52.334;10.392;2024-01-15T12:37:00;98833.19;;;2.47;80.24
61478;BME280;47345;52.334;10.392;2024-01-15T12:39:30;98831.92;;;2.43;80.93
61478;BME280;47345;52.334;10.392;2024-01-15T12:42:02;98832.42;;;2.41;80.87
61478;BME280;47345;52.334;10.392;2024-01-15T12:44:33;98833.94;;;2.39;81.23
61478;BME280;47345;52.334;10.392;2024-01-15T12:47:08;98837.77;;;2.40;81.07
61478;BME280;47345;52.334;10.392;2024-01-15T12:49:39;98837.61;;;2.41;81.23
61478;BME280;47345;52.334;10.392;2024-01-15T12:52:10;98835.69;;;2.42;81.09
61478;BME280;47345;52.334;10.392;2024-01-15T12:54:41;98838.10;;;2.40;81.02
61478;BME280;47345;52.334;10.392;2024-01-15T12:57:12;98839.77;;;2.38;81.03
61478;BME280;47345;52.334;10.392;2024-01-15T12:59:42;98836.02;;;2.39;81.39
61478;BME280;47345;52.334;10.392;2024-01-15T13:02:14;98836.88;;;2.42;80.87
61478;BME280;47345;52.334;10.392;2024-01-15T13:04:44;98836.51;;;2.45;80.91
61478;BME280;47345;52.334;10.392;2024-01-15T13:07:15;98838.99;;;2.47;81.30
61478;BME280;47345;52.334;10.392;2024-01-15T13:09:46;98837.33;;;2.49;80.87
61478;BME280;47345;52.334;10.392;2024-01-15T13:12:17;98834.73;;;2.49;80.44
61478;BME280;47345;52.334;10.392;2024-01-15T13:14:47;98836.50;;;2.55;80.48
61478;BME280;47345;52.334;10.392;2024-01-15T13:17:18;98832.16;;;2.61;80.22
61478;BME280;47345;52.334;10.392;2024-01-15T13:19:50;98832.95;;;2.60;79.94
61478;BME280;47345;52.334;10.392;2024-01-15T13:22:21;98829.67;;;2.58;79.87
61478;BME280;47345;52.334;10.392;2024-01-15T13:24:54;98831.61;;;2.57;79.99